Time;durP1;ratioP1;P1;durP2;ratioP2;P2;SDS_P1;SDS_P2;PMS_P1;PMS_P2;Temp;Humidity;BMP_temperature;BMP_pressure;BME280_temperature;BME280_humidity;BME280_pressure;Samples;Min_cycle;Max_cycle;Signal;HPM_P1;HPM_P2
2022/03/03 00:00:15;;;;;;;12.50;8.37;;;;;;;-3.96;71.20;99809.66;5079405;28;20568;-80
2022/03/03 00:02:51;;;;;;;12.80;8.87;;;;;;;-4.02;71.14;99803.16;5078770;28;20591;-77
2022/03/03 00:05:18;;;;;;;12.20;8.67;;;;;;;-4.03;71.08;99804.94;5079778;28;21343;-75
2022/03/03 00:07:46;;;;;;;11.33;8.00;;;;;;;-4.05;70.75;99806.84;5061035;28;20225;-75
2022/03/03 00:10:12;;;;;;;12.17;8.63;;;;;;;-4.02;70.86;99800.56;5078646;28;20280;-76
2022/03/03 00:12:39;;;;;;;13.23;8.60;;;;;;;-4.08;71.59;99798.41;5078845;28;20225;-80
2022/03/03 00:15:06;;;;;;;13.00;8.67;;;;;;;-4.09;71.63;99800.19;5078712;28;20246;-75
2022/03/03 00:17:33;;;;;;;12.33;8.27;;;;;;;-4.13;72.27;99797.94;5081577;28;20288;-74
2022/03/03 00:19:59;;;;;;;11.90;8.67;;;;;;;-4.15;72.77;99799.84;5086495;28;20290;-75
2022/03/03 00:22:26;;;;;;;14.67;8.63;;;;;;;-4.15;72.11;99792.81;5080614;28;20229;-76
2022/03/03 00:24:53;;;;;;;12.00;8.00;;;;;;;-4.16;71.88;99785.13;5081383;28;20716;-73
2022/03/03 00:27:20;;;;;;;12.37;7.97;;;;;;;-4.18;71.53;99780.00;5081745;28;20213;-81
2022/03/03 00:29:47;;;;;;;14.20;8.67;;;;;;;-4.13;72.45;99783.09;5080952;28;20282;-73
2022/03/03 00:32:15;;;;;;;13.30;8.93;;;;;;;-4.14;72.07;99780.56;5081747;28;20237;-75
2022/03/03 00:34:42;;;;;;;12.67;9.00;;;;;;;-4.10;71.46;99777.59;5081035;28;20240;-75
2022/03/03 00:37:09;;;;;;;13.07;8.90;;;;;;;-4.07;71.26;99782.59;5081352;28;20236;-75
2022/03/03 00:39:39;;;;;;;14.17;9.80;;;;;;;-4.06;72.03;99788.66;5080171;28;20228;-75
2022/03/03 00:42:05;;;;;;;15.00;9.40;;;;;;;-4.10;72.30;99793.28;5079316;28;20232;-75
2022/03/03 00:44:32;;;;;;;11.90;8.43;;;;;;;-4.03;72.15;99788.41;5080896;28;20586;-73
2022/03/03 00:46:59;;;;;;;15.67;9.67;;;;;;;-4.02;72.31;99787.47;5080842;28;20235;-73
2022/03/03 00:49:26;;;;;;;14.60;9.57;;;;;;;-4.03;72.30;99789.25;5081013;28;20274;-74
2022/03/03 00:51:53;;;;;;;12.53;9.50;;;;;;;-4.13;72.62;99783.09;5081126;28;20275;-79
2022/03/03 00:54:19;;;;;;;14.03;9.33;;;;;;;-4.18;73.61;99781.78;5080643;28;20538;-79
2022/03/03 00:56:46;;;;;;;14.77;9.10;;;;;;;-4.19;73.52;99774.88;5081272;28;20315;-75
2022/03/03 00:59:14;;;;;;;14.63;9.67;;;;;;;-4.21;73.71;99771.56;5081904;28;20224;-75
2022/03/03 01:01:40;;;;;;;12.20;9.13;;;;;;;-4.20;73.47;99768.81;5082126;28;20559;-73
2022/03/03 01:04:10;;;;;;;14.13;9.80;;;;;;;-4.16;73.70;99775.50;5081108;28;20232;-78
2022/03/03 01:06:36;;;;;;;14.07;9.50;;;;;;;-4.12;73.78;99771.66;5079756;28;20224;-73
2022/03/03 01:09:03;;;;;;;15.23;10.27;;;;;;;-4.03;73.88;99765.69;5061876;28;20312;-73
2022/03/03 01:11:30;;;;;;;15.00;9.27;;;;;;;-4.05;73.31;99772.81;5062423;28;20231;-75
2022/03/03 01:13:57;;;;;;;14.63;9.73;;;;;;;-4.12;73.92;99770.84;5079501;28;20249;-74
2022/03/03 01:16:23;;;;;;;14.13;10.53;;;;;;;-4.19;74.51;99767.88;5079580;28;20299;-74
2022/03/03 01:18:50;;;;;;;13.80;9.63;;;;;;;-4.22;75.16;99765.50;5079700;28;20311;-72
2022/03/03 01:21:18;;;;;;;13.97;10.03;;;;;;;-4.17;75.06;99767.75;5080257;28;20280;-74
2022/03/03 01:23:45;;;;;;;12.13;9.40;;;;;;;-4.20;75.48;99768.00;5079913;28;20222;-73
2022/03/03 01:26:11;;;;;;;14.03;9.67;;;;;;;-4.21;75.04;99763.72;5061064;28;20224;-78
2022/03/03 01:28:38;;;;;;;14.60;9.50;;;;;;;-4.21;74.93;99755.88;5080056;28;20239;-74
2022/03/03 01:31:05;;;;;;;13.23;9.23;;;;;;;-4.17;74.78;99758.13;5078969;28;20312;-73
2022/03/03 01:33:32;;;;;;;15.33;10.40;;;;;;;-4.26;75.60;99755.41;5078932;28;20282;-74
2022/03/03 01:35:58;;;;;;;14.10;9.53;;;;;;;-4.32;75.32;99748.88;5078609;28;20275;-72
2022/03/03 01:38:25;;;;;;;15.43;10.40;;;;;;;-4.32;74.93;99740.19;5080569;28;20246;-78
2022/03/03 01:40:52;;;;;;;16.30;10.30;;;;;;;-4.38;75.45;99748.53;5079699;28;20274;-73
2022/03/03 01:43:23;;;;;;;14.90;9.70;;;;;;;-4.37;75.99;99750.19;5062334;28;20307;-73
2022/03/03 01:45:50;;;;;;;14.30;10.17;;;;;;;-4.29;75.59;99737.34;5078877;28;20239;-73
2022/03/03 01:48:17;;;;;;;15.47;10.53;;;;;;;-4.39;76.27;99731.19;5078328;28;20229;-77
2022/03/03 01:50:45;;;;;;;14.93;10.13;;;;;;;-4.25;75.64;99738.75;5061403;28;20538;-75
2022/03/03 01:53:14;;;;;;;15.50;10.40;;;;;;;-4.44;77.05;99731.56;5078540;28;20224;-73
2022/03/03 01:55:41;;;;;;;20.83;10.87;;;;;;;-4.49;78.11;99731.09;5078794;28;20324;-73
2022/03/03 01:58:08;;;;;;;13.83;9.83;;;;;;;-4.49;78.02;99724.06;5077498;28;20229;-74
2022/03/03 02:00:35;;;;;;;14.97;10.40;;;;;;;-4.52;78.59;99719.06;5045240;28;20251;-78
2022/03/03 02:03:02;;;;;;;16.93;10.63;;;;;;;-4.61;79.39;99724.19;5079374;28;20565;-74
2022/03/03 02:05:30;;;;;;;15.27;10.17;;;;;;;-4.54;78.59;99728.00;5080152;28;20229;-77
2022/03/03 02:07:57;;;;;;;15.13;9.73;;;;;;;-4.60;78.46;99733.72;5062223;28;20239;-76
2022/03/03 02:10:24;;;;;;;15.23;10.33;;;;;;;-4.64;80.00;99722.66;5062475;28;20308;-74
2022/03/03 02:12:51;;;;;;;14.93;10.30;;;;;;;-4.60;79.69;99718.84;5079482;28;20277;-75
2022/03/03 02:15:20;;;;;;;15.90;11.07;;;;;;;-4.70;80.41;99717.91;5079647;28;20225;-75
2022/03/03 02:17:47;;;;;;;15.87;10.43;;;;;;;-4.76;81.51;99715.81;5079804;28;20228;-76
2022/03/03 02:20:23;;;;;;;11.83;9.80;;;;;;;-4.77;82.54;99710.69;5061350;28;20320;-76
2022/03/03 02:22:54;;;;;;;16.90;11.03;;;;;;;-4.81;84.07;99701.44;5079209;28;20228;-77
2022/03/03 02:25:22;;;;;;;13.87;10.10;;;;;;;-4.79;84.45;99702.13;5074800;28;20228;-74
2022/03/03 02:27:49;;;;;;;12.27;9.53;;;;;;;-4.84;84.99;99707.72;5078350;28;20264;-73
2022/03/03 02:30:17;;;;;;;14.03;10.37;;;;;;;-4.82;85.23;99702.38;5076486;28;20245;-73
2022/03/03 02:32:44;;;;;;;20.47;11.17;;;;;;;-4.84;85.12;99699.88;5076386;28;20678;-73
2022/03/03 02:35:11;;;;;;;15.77;11.03;;;;;;;-4.83;86.10;99705.94;5076014;28;20241;-73
2022/03/03 02:37:40;;;;;;;14.87;10.90;;;;;;;-4.83;86.41;99696.31;5059034;28;20228;-73
2022/03/03 02:40:09;;;;;;;15.57;10.93;;;;;;;-4.82;85.80;99692.75;5074699;28;20228;-73
2022/03/03 02:42:37;;;;;;;15.50;10.57;;;;;;;-4.83;86.21;99701.53;5058924;28;20254;-75
2022/03/03 02:45:06;;;;;;;13.30;9.97;;;;;;;-4.86;86.33;99691.34;5059121;28;20228;-74
2022/03/03 02:47:39;;;;;;;16.10;10.67;;;;;;;-4.88;86.18;99694.06;5076084;28;20245;-73
2022/03/03 02:50:06;;;;;;;16.90;11.20;;;;;;;-4.84;86.00;99696.41;5058279;28;20268;-73
2022/03/03 02:52:33;;;;;;;17.77;10.87;;;;;;;-4.82;85.82;99697.16;5076355;28;20252;-73
2022/03/03 02:55:00;;;;;;;15.57;10.17;;;;;;;-4.81;85.28;99698.81;5074737;28;20224;-73
2022/03/03 03:00:14;;;;;;;15.73;10.80;;;;;;;-4.80;84.87;99679.53;5075981;28;20220;-72
2022/03/03 03:02:41;;;;;;;15.87;10.07;;;;;;;-4.82;85.28;99676.25;5076259;28;20288;-73
2022/03/03 03:05:08;;;;;;;14.47;9.93;;;;;;;-4.82;85.06;99678.84;5076367;28;20248;-73
2022/03/03 03:07:35;;;;;;;16.03;10.63;;;;;;;-4.83;84.30;99670.19;5076402;28;20275;-75
2022/03/03 03:10:06;;;;;;;13.80;10.83;;;;;;;-4.86;85.07;99673.03;5058148;28;20229;-72
2022/03/03 03:12:33;;;;;;;15.83;10.93;;;;;;;-4.89;85.51;99668.03;5076595;28;20235;-73
2022/03/03 03:15:00;;;;;;;15.13;10.87;;;;;;;-4.88;85.04;99674.94;5075920;28;20251;-73
2022/03/03 03:17:29;;;;;;;15.07;10.80;;;;;;;-4.82;84.96;99671.00;5076728;28;20225;-76
2022/03/03 03:19:55;;;;;;;14.73;10.67;;;;;;;-4.85;85.05;99666.03;5076236;28;20260;-74
2022/03/03 03:22:22;;;;;;;19.07;11.27;;;;;;;-4.86;85.06;99673.03;5052388;28;20316;-74
2022/03/03 03:24:49;;;;;;;16.10;11.00;;;;;;;-4.75;85.09;99672.16;5076480;28;20232;-74
2022/03/03 03:27:16;;;;;;;14.83;11.43;;;;;;;-4.78;85.62;99668.03;5076889;28;20228;-76
2022/03/03 03:29:42;;;;;;;13.70;10.33;;;;;;;-4.75;85.26;99667.78;5076991;28;20278;-76
2022/03/03 03:32:09;;;;;;;16.10;11.27;;;;;;;-4.76;85.47;99670.53;5078589;28;20240;-80
2022/03/03 03:34:36;;;;;;;17.80;11.83;;;;;;;-4.84;85.70;99663.28;5078911;28;20315;-77
2022/03/03 03:37:03;;;;;;;16.80;11.40;;;;;;;-4.81;86.26;99664.84;5075920;28;20279;-77
2022/03/03 03:39:30;;;;;;;15.93;11.33;;;;;;;-4.85;87.49;99661.63;5078734;28;20323;-74
2022/03/03 03:41:57;;;;;;;17.73;11.33;;;;;;;-4.76;87.11;99663.53;5078691;28;20619;-73
2022/03/03 03:44:23;;;;;;;16.37;10.90;;;;;;;-4.78;86.92;99662.81;5072786;28;20581;-74
2022/03/03 03:46:53;;;;;;;15.53;11.57;;;;;;;-4.88;86.16;99660.09;5086841;22;20228;-75
2022/03/03 03:49:20;;;;;;;18.03;11.93;;;;;;;-4.93;87.62;99659.63;5070193;28;20224;-72
2022/03/03 03:51:47;;;;;;;18.03;12.80;;;;;;;-4.99;87.43;99649.63;5097860;28;20276;-74
2022/03/03 03:54:13;;;;;;;19.70;14.43;;;;;;;-4.95;87.50;99647.63;5095104;28;20236;-76
2022/03/03 03:56:40;;;;;;;20.43;15.30;;;;;;;-4.93;86.34;99651.78;5081331;28;20231;-72
2022/03/03 03:59:07;;;;;;;20.60;15.00;;;;;;;-4.96;86.68;99645.97;5096365;28;20227;-73
2022/03/03 04:01:34;;;;;;;17.93;13.70;;;;;;;-4.97;86.21;99634.69;5077044;28;20327;-73
2022/03/03 04:04:02;;;;;;;17.20;12.67;;;;;;;-4.99;86.82;99646.19;5095166;28;20334;-74
2022/03/03 04:06:29;;;;;;;17.23;12.37;;;;;;;-4.97;86.39;99637.28;5081224;28;20298;-74
2022/03/03 04:08:55;;;;;;;16.97;11.93;;;;;;;-4.99;86.67;99639.19;5092107;28;20571;-80
2022/03/03 04:11:22;;;;;;;17.67;11.57;;;;;;;-5.08;87.77;99637.31;5074521;28;20224;-78
2022/03/03 04:13:49;;;;;;;17.60;12.27;;;;;;;-5.10;88.10;99641.84;5096225;28;20234;-75
2022/03/03 04:16:16;;;;;;;15.77;11.53;;;;;;;-5.09;88.04;99638.28;5097895;28;20662;-77
2022/03/03 04:18:43;;;;;;;17.37;11.73;;;;;;;-5.05;85.14;99641.47;5090980;28;20281;-75
2022/03/03 04:21:09;;;;;;;18.20;11.83;;;;;;;-5.07;84.39;99632.91;5088932;28;20244;-77
2022/03/03 04:23:36;;;;;;;16.70;11.37;;;;;;;-5.05;82.82;99636.25;5081467;28;20228;-75
2022/03/03 04:26:03;;;;;;;14.17;10.27;;;;;;;-5.03;81.93;99636.94;5097165;28;20229;-74
2022/03/03 04:28:30;;;;;;;16.03;11.03;;;;;;;-5.01;80.52;99641.09;5095439;28;20567;-74
2022/03/03 04:30:56;;;;;;;17.57;11.10;;;;;;;-5.03;80.50;99621.25;5079067;28;20220;-74
2022/03/03 04:33:23;;;;;;;16.00;11.60;;;;;;;-5.15;82.58;99623.06;5097385;28;20599;-73
2022/03/03 04:35:50;;;;;;;15.73;10.93;;;;;;;-5.23;85.41;99625.47;5078208;28;20220;-76
2022/03/03 04:38:17;;;;;;;16.50;11.20;;;;;;;-5.25;88.72;99629.97;5075804;28;20244;-73
2022/03/03 04:40:44;;;;;;;14.83;11.17;;;;;;;-5.30;90.07;99626.88;5094583;28;20239;-72
2022/03/03 04:43:10;;;;;;;15.67;11.57;;;;;;;-5.29;96.03;99627.72;5058103;28;20236;-75
2022/03/03 04:45:37;;;;;;;17.53;11.93;;;;;;;-5.28;94.87;99626.75;5058403;28;20236;-73
2022/03/03 04:48:04;;;;;;;15.60;11.60;;;;;;;-5.23;93.37;99622.84;5094163;28;20237;-74
2022/03/03 04:50:31;;;;;;;15.83;11.27;;;;;;;-5.17;92.38;99624.97;5084740;28;20228;-72
2022/03/03 04:52:58;;;;;;;18.57;11.40;;;;;;;-5.31;92.62;99627.81;5074130;28;20240;-81
2022/03/03 04:55:25;;;;;;;16.47;11.23;;;;;;;-5.37;93.54;99616.09;5077454;28;20273;-76
2022/03/03 04:57:52;;;;;;;18.00;12.17;;;;;;;-5.42;94.09;99622.63;5099168;28;20232;-75
2022/03/03 05:00:19;;;;;;;18.23;11.97;;;;;;;-5.39;94.53;99624.97;5096853;28;20223;-77
2022/03/03 05:02:49;;;;;;;18.33;12.30;;;;;;;-5.40;95.52;99623.31;5097439;28;20219;-74
2022/03/03 05:05:17;;;;;;;17.40;11.67;;;;;;;-5.43;96.04;99620.94;5090305;28;20216;-79
2022/03/03 05:07:44;;;;;;;17.93;11.63;;;;;;;-5.44;96.15;99611.44;5090868;28;20275;-77
2022/03/03 05:10:11;;;;;;;17.00;12.40;;;;;;;-5.38;96.18;99608.38;5096085;28;20319;-81
2022/03/03 05:12:37;;;;;;;18.23;11.90;;;;;;;-5.32;96.33;99604.47;5056124;28;20315;-76
2022/03/03 05:15:06;;;;;;;19.10;12.43;;;;;;;-5.25;95.71;99597.78;5095640;28;20228;-74
2022/03/03 05:17:32;;;;;;;17.57;12.50;;;;;;;-5.23;92.15;99594.13;5100192;28;20228;-74
2022/03/03 05:19:59;;;;;;;20.13;12.40;;;;;;;-5.18;90.98;99597.22;5095730;28;20281;-77
2022/03/03 05:22:27;;;;;;;18.30;12.20;;;;;;;-5.07;89.19;99598.94;5096050;28;20514;-77
2022/03/03 05:24:55;;;;;;;16.57;11.97;;;;;;;-5.09;86.59;99601.69;5090521;28;20220;-72
2022/03/03 05:27:22;;;;;;;16.57;12.37;;;;;;;-5.07;86.83;99591.94;5088168;28;20227;-73
2022/03/03 05:29:50;;;;;;;17.17;12.70;;;;;;;-5.17;88.09;99593.63;5095750;28;20252;-77
2022/03/03 05:32:16;;;;;;;18.37;12.07;;;;;;;-5.17;88.16;99596.22;5094591;28;20225;-76
2022/03/03 05:34:43;;;;;;;20.07;11.43;;;;;;;-5.15;88.67;99596.13;5091232;28;20220;-75
2022/03/03 05:37:10;;;;;;;17.17;12.10;;;;;;;-5.09;89.12;99587.81;5090301;28;20224;-77
2022/03/03 05:39:37;;;;;;;18.77;12.23;;;;;;;-5.00;88.45;99590.53;5092111;28;20574;-79
2022/03/03 05:42:04;;;;;;;17.20;12.00;;;;;;;-5.09;87.51;99601.69;5085197;28;20232;-79
2022/03/03 05:44:31;;;;;;;18.27;12.23;;;;;;;-5.17;89.16;99596.22;5075907;28;20654;-76
2022/03/03 05:46:59;;;;;;;18.40;12.73;;;;;;;-5.20;90.90;99601.72;5094587;28;20231;-74
2022/03/03 05:49:26;;;;;;;17.63;12.27;;;;;;;-5.17;91.45;99595.41;5069789;28;20278;-77
2022/03/03 05:51:52;;;;;;;20.47;13.33;;;;;;;-5.12;92.03;99588.03;5094660;28;20248;-77
2022/03/03 05:54:20;;;;;;;21.03;13.10;;;;;;;-5.03;92.78;99601.19;5092631;28;20228;-74
2022/03/03 05:56:48;;;;;;;16.70;12.30;;;;;;;-5.03;91.44;99601.19;5087544;28;20267;-76
2022/03/03 05:59:15;;;;;;;17.57;12.27;;;;;;;-5.00;92.28;99594.91;5076329;28;20254;-76
2022/03/03 06:01:42;;;;;;;18.53;12.17;;;;;;;-4.98;91.91;99600.81;5088965;28;20263;-74
2022/03/03 06:04:13;;;;;;;17.73;11.97;;;;;;;-4.95;92.32;99600.59;5076542;28;20559;-77
2022/03/03 06:07:00;;;;;;;21.30;11.43;;;;;;;-4.85;91.05;99598.88;5095999;28;20506;-74
2022/03/03 06:09:32;;;;;;;17.43;11.60;;;;;;;-4.67;89.84;99607.06;5095175;28;20554;-72
2022/03/03 06:12:22;;;;;;;17.17;11.10;;;;;;;-4.67;88.07;99604.44;5086938;28;20259;-74
2022/03/03 06:14:55;;;;;;;19.03;11.73;;;;;;;-4.59;86.55;99604.66;5072281;28;20224;-74
2022/03/03 06:17:24;;;;;;;18.10;11.87;;;;;;;-4.49;86.68;99605.56;5092138;28;20335;-72
2022/03/03 06:19:54;;;;;;;19.50;11.37;;;;;;;-4.37;86.42;99601.94;5093970;28;20231;-75
2022/03/03 06:22:24;;;;;;;16.87;11.10;;;;;;;-4.25;85.41;99600.13;5088500;28;20252;-73
2022/03/03 06:24:51;;;;;;;18.17;11.10;;;;;;;-4.17;85.14;99600.31;5086622;28;20323;-75
2022/03/03 06:27:17;;;;;;;20.27;12.03;;;;;;;-4.06;85.17;99603.66;5091952;28;20243;-73
2022/03/03 06:29:44;;;;;;;18.03;11.70;;;;;;;-3.91;84.45;99603.34;5089825;28;20580;-74
2022/03/03 06:32:11;;;;;;;17.57;11.53;;;;;;;-3.80;83.81;99603.28;5088226;28;20234;-76
2022/03/03 06:34:38;;;;;;;18.23;12.70;;;;;;;-3.67;83.52;99611.75;5081779;28;20291;-78
2022/03/03 06:37:05;;;;;;;18.80;12.90;;;;;;;-3.53;82.88;99600.94;5074832;28;20289;-78
2022/03/03 06:39:35;;;;;;;20.17;12.80;;;;;;;-3.34;81.14;99610.69;5091334;28;20270;-74
2022/03/03 06:42:02;;;;;;;18.70;12.23;;;;;;;-3.24;80.01;99609.75;5061582;28;20311;-73
2022/03/03 06:44:28;;;;;;;18.97;12.83;;;;;;;-3.09;79.07;99610.22;5093697;28;20220;-74
2022/03/03 06:46:55;;;;;;;17.93;12.27;;;;;;;-2.94;78.45;99605.44;5092445;28;20318;-73
2022/03/03 06:49:22;;;;;;;20.77;13.07;;;;;;;-2.77;77.40;99608.22;5094380;28;20242;-75
2022/03/03 06:51:50;;;;;;;17.87;12.53;;;;;;;-2.60;74.43;99611.13;5094707;28;20232;-72
2022/03/03 06:54:20;;;;;;;18.30;12.73;;;;;;;-2.45;73.33;99607.97;5074615;28;20224;-75
2022/03/03 06:56:48;;;;;;;17.77;13.23;;;;;;;-2.28;72.89;99609.06;5088523;28;20310;-75
2022/03/03 06:59:24;;;;;;;20.53;13.53;;;;;;;-2.12;72.14;99611.16;5095128;28;20311;-74
2022/03/03 07:01:52;;;;;;;23.33;13.33;;;;;;;-1.93;71.85;99605.88;5093494;28;20227;-74
2022/03/03 07:04:19;;;;;;;17.40;12.60;;;;;;;-1.73;70.85;99614.56;5073551;28;20224;-74
2022/03/03 07:06:47;;;;;;;19.43;13.40;;;;;;;-1.57;70.23;99606.91;5089241;28;20326;-75
2022/03/03 07:09:14;;;;;;;20.93;14.17;;;;;;;-1.41;70.18;99609.75;5095875;28;20619;-78
2022/03/03 07:11:43;;;;;;;21.87;13.77;;;;;;;-1.26;69.90;99605.66;5077871;28;20230;-73
2022/03/03 07:14:11;;;;;;;19.47;13.83;;;;;;;-1.02;68.21;99611.22;5078731;28;20303;-74
2022/03/03 07:17:17;;;;;;;18.67;13.23;;;;;;;-0.91;68.02;99618.09;5091213;28;20336;-76
2022/03/03 07:19:50;;;;;;;22.47;13.60;;;;;;;-0.69;65.58;99611.59;5072536;28;20569;-75
2022/03/03 07:22:18;;;;;;;19.97;13.93;;;;;;;-0.53;63.20;99603.88;5090356;28;20267;-73
2022/03/03 07:24:48;;;;;;;18.00;13.27;;;;;;;-0.41;62.37;99610.56;5089251;28;20635;-78
2022/03/03 07:27:21;;;;;;;24.03;14.90;;;;;;;-0.21;61.08;99613.88;5094015;28;20295;-73
2022/03/03 07:29:57;;;;;;;22.37;14.17;;;;;;;-0.12;61.48;99613.81;5092348;28;20236;-77
2022/03/03 07:32:39;;;;;;;23.20;14.17;;;;;;;0.02;60.05;99620.34;5095170;28;20224;-74
2022/03/03 07:35:12;;;;;;;22.93;14.40;;;;;;;0.12;60.88;99609.72;5093398;28;20220;-74
2022/03/03 07:37:57;;;;;;;21.57;14.67;;;;;;;0.26;60.19;99609.97;5090615;28;20645;-74
2022/03/03 07:40:32;;;;;;;18.70;13.63;;;;;;;0.36;60.49;99615.16;5090977;28;20224;-74
2022/03/03 07:43:01;;;;;;;19.77;13.90;;;;;;;0.49;59.85;99617.38;5095118;28;20287;-75
2022/03/03 07:45:29;;;;;;;23.37;14.03;;;;;;;0.68;59.58;99609.25;5085722;28;20310;-74
2022/03/03 07:47:56;;;;;;;19.67;14.27;;;;;;;0.84;59.31;99604.06;5094942;28;20242;-77
2022/03/03 07:50:24;;;;;;;19.73;14.50;;;;;;;1.08;58.65;99609.41;5075137;28;20234;-76
2022/03/03 07:52:52;;;;;;;22.03;14.33;;;;;;;1.26;57.74;99599.56;5095902;28;20260;-76
2022/03/03 07:55:19;;;;;;;19.97;14.73;;;;;;;1.38;57.32;99594.00;5075639;28;20254;-74
2022/03/03 07:58:01;;;;;;;18.73;14.27;;;;;;;1.68;54.07;99588.91;5093049;28;20223;-72
2022/03/03 08:00:33;;;;;;;19.90;13.93;;;;;;;1.97;55.54;99582.31;5097430;28;20224;-77
2022/03/03 08:03:08;;;;;;;20.10;12.97;;;;;;;2.15;51.61;99577.69;5097849;28;20587;-72
2022/03/03 08:05:37;;;;;;;19.73;13.57;;;;;;;2.41;51.20;99574.84;5074261;28;20228;-73
2022/03/03 08:08:04;;;;;;;20.10;13.57;;;;;;;2.42;50.67;99576.50;5074312;28;20254;-75
2022/03/03 08:10:34;;;;;;;17.17;12.97;;;;;;;2.60;52.11;99577.94;5087168;28;20630;-80
2022/03/03 08:13:01;;;;;;;20.33;13.87;;;;;;;2.79;52.12;99573.25;5099777;28;20224;-76
2022/03/03 08:15:28;;;;;;;21.37;13.80;;;;;;;3.13;49.72;99576.38;5100601;28;20239;-75
2022/03/03 08:17:54;;;;;;;20.87;14.50;;;;;;;3.23;49.14;99574.34;5083410;28;20315;-76
2022/03/03 08:20:23;;;;;;;19.77;13.53;;;;;;;3.29;48.48;99578.13;5090979;28;20231;-74
2022/03/03 08:22:50;;;;;;;19.27;13.37;;;;;;;3.45;48.13;99573.56;5083464;28;20310;-73
2022/03/03 08:25:17;;;;;;;19.43;13.60;;;;;;;3.58;48.06;99578.28;5091507;28;20312;-77
2022/03/03 08:27:45;;;;;;;19.20;12.33;;;;;;;3.73;47.18;99575.72;5087186;28;20228;-74
2022/03/03 08:30:13;;;;;;;15.83;12.77;;;;;;;3.76;46.06;99567.41;5074021;28;20630;-74
2022/03/03 08:32:43;;;;;;;17.83;11.93;;;;;;;3.74;45.69;99569.38;5088958;28;20220;-76
2022/03/03 08:35:17;;;;;;;20.27;12.53;;;;;;;3.72;45.16;99556.34;5072561;28;20308;-74
2022/03/03 08:38:06;;;;;;;15.67;11.13;;;;;;;3.85;44.36;99550.44;5104249;28;20254;-74
2022/03/03 08:40:34;;;;;;;15.10;11.07;;;;;;;3.89;43.35;99547.25;5093437;28;20235;-76
2022/03/03 08:43:04;;;;;;;14.17;11.10;;;;;;;3.94;42.59;99544.88;5064644;28;20242;-76
2022/03/03 08:45:33;;;;;;;15.37;11.30;;;;;;;3.94;42.29;99544.88;5089433;28;20234;-76
2022/03/03 08:48:11;;;;;;;16.83;11.47;;;;;;;3.89;42.64;99539.28;5096067;28;20665;-75
2022/03/03 08:50:40;;;;;;;16.37;10.97;;;;;;;3.92;42.34;99538.94;5100073;28;20232;-77
2022/03/03 08:53:08;;;;;;;16.43;11.10;;;;;;;4.01;42.55;99546.81;5087901;28;20292;-80
2022/03/03 08:55:37;;;;;;;17.13;11.87;;;;;;;4.29;42.15;99545.22;5079286;28;20319;-76
2022/03/03 08:58:04;;;;;;;14.13;11.03;;;;;;;4.40;40.60;99529.69;5097603;28;20265;-74
2022/03/03 09:00:31;;;;;;;14.00;11.17;;;;;;;4.72;40.33;99538.25;5072102;28;20231;-76
2022/03/03 09:02:59;;;;;;;14.70;10.67;;;;;;;4.95;39.92;99543.44;5093220;28;20258;-74
2022/03/03 09:05:26;;;;;;;14.00;11.17;;;;;;;5.26;39.74;99525.47;5093891;28;20252;-75
2022/03/03 09:07:53;;;;;;;14.03;10.60;;;;;;;5.37;39.15;99529.44;5100498;28;20234;-77
2022/03/03 09:10:21;;;;;;;15.80;11.07;;;;;;;5.26;38.24;99514.84;5074828;28;20259;-74
2022/03/03 09:12:50;;;;;;;14.77;10.80;;;;;;;5.58;38.16;99517.00;5091299;28;20675;-73
2022/03/03 09:15:17;;;;;;;15.13;11.00;;;;;;;5.55;37.71;99512.03;5095197;28;20610;-76
2022/03/03 09:17:44;;;;;;;13.57;10.20;;;;;;;5.59;37.36;99518.66;5089013;28;20228;-76
2022/03/03 09:20:14;;;;;;;15.13;10.87;;;;;;;5.57;36.50;99517.19;5095967;28;20224;-75
2022/03/03 09:22:44;;;;;;;14.77;10.73;;;;;;;5.52;36.64;99506.28;5091768;28;20714;-73
2022/03/03 09:25:11;;;;;;;13.50;10.37;;;;;;;5.54;36.84;99505.09;5075981;28;20315;-73
2022/03/03 09:27:38;;;;;;;14.03;11.13;;;;;;;5.52;37.46;99504.47;5076795;28;20228;-76
2022/03/03 09:30:06;;;;;;;13.07;10.70;;;;;;;5.31;37.70;99499.97;5063678;28;20262;-74
2022/03/03 09:32:35;;;;;;;15.53;11.33;;;;;;;5.19;38.35;99503.31;5078336;28;20237;-77
2022/03/03 09:35:03;;;;;;;15.30;11.73;;;;;;;5.31;38.74;99499.16;5095661;28;20585;-75
2022/03/03 09:37:30;;;;;;;13.87;10.73;;;;;;;5.54;38.18;99509.59;5073195;28;20250;-77
2022/03/03 09:39:56;;;;;;;14.37;11.03;;;;;;;5.79;36.69;99497.53;5098107;28;20247;-74
2022/03/03 09:42:24;;;;;;;15.73;10.63;;;;;;;5.83;36.36;99498.00;5067712;28;20228;-74
2022/03/03 09:44:53;;;;;;;16.07;10.73;;;;;;;5.81;36.93;99492.88;5076890;28;20537;-72
2022/03/03 09:47:19;;;;;;;12.30;10.60;;;;;;;5.94;35.49;99487.66;5092950;28;20255;-73
2022/03/03 09:49:46;;;;;;;12.50;10.03;;;;;;;5.87;34.76;99489.47;5078342;28;20234;-75
2022/03/03 09:52:15;;;;;;;12.30;9.87;;;;;;;5.87;35.74;99486.00;5090431;28;20248;-74
2022/03/03 09:54:42;;;;;;;12.27;10.13;;;;;;;5.95;35.02;99481.34;5095992;28;20230;-74
2022/03/03 09:57:09;;;;;;;12.13;9.87;;;;;;;6.03;34.49;99483.84;5094446;28;20521;-75
2022/03/03 09:59:36;;;;;;;15.20;10.10;;;;;;;5.98;34.13;99480.13;5053773;28;20559;-74
2022/03/03 10:02:07;;;;;;;14.77;10.60;;;;;;;6.02;34.97;99476.09;5073490;28;20568;-74
2022/03/03 10:04:35;;;;;;;13.60;10.37;;;;;;;6.05;33.74;99473.03;5074004;28;20220;-76
2022/03/03 10:07:07;;;;;;;12.30;10.13;;;;;;;6.16;34.34;99469.81;5090036;28;20697;-75
2022/03/03 10:10:19;;;;;;;13.70;9.70;;;;;;;6.07;33.09;99457.69;5087543;28;20311;-74
2022/03/03 10:12:43;;;;;;;14.40;9.73;;;;;;;6.28;34.20;99460.28;5085450;28;20231;-75
2022/03/03 10:15:14;;;;;;;12.27;9.77;;;;;;;6.45;33.20;99463.44;5073798;28;20220;-76
2022/03/03 10:17:41;;;;;;;12.73;10.20;;;;;;;6.50;33.52;99456.50;5076841;28;20221;-73
2022/03/03 10:20:09;;;;;;;12.70;10.23;;;;;;;6.44;33.35;99454.63;5056658;28;20231;-74
2022/03/03 10:22:45;;;;;;;17.80;10.57;;;;;;;6.45;33.70;99444.81;5092665;28;20261;-77
2022/03/03 10:25:15;;;;;;;13.97;9.90;;;;;;;6.53;34.10;99440.13;5094883;28;20215;-77
2022/03/03 10:27:42;;;;;;;12.40;9.53;;;;;;;6.53;32.67;99426.03;5096630;28;20584;-76
2022/03/03 10:30:10;;;;;;;13.40;9.77;;;;;;;6.61;33.65;99433.84;5086001;28;20557;-73
2022/03/03 10:32:39;;;;;;;16.63;10.90;;;;;;;6.54;33.75;99432.97;5078282;28;20228;-73
2022/03/03 10:35:15;;;;;;;13.73;10.13;;;;;;;6.56;32.49;99428.28;5077790;28;20258;-76
2022/03/03 10:37:43;;;;;;;14.40;10.00;;;;;;;6.64;32.69;99433.44;5092921;28;20228;-74
2022/03/03 10:40:13;;;;;;;13.07;10.40;;;;;;;6.71;32.86;99426.31;5069254;28;20269;-79
2022/03/03 10:42:47;;;;;;;13.40;10.47;;;;;;;6.71;32.67;99410.31;5094450;28;20230;-75
2022/03/03 10:45:17;;;;;;;13.53;10.03;;;;;;;6.89;31.99;99420.41;5109897;28;20219;-77
2022/03/03 10:47:46;;;;;;;17.17;10.00;;;;;;;6.80;32.62;99417.13;5084979;28;20250;-75
2022/03/03 10:50:13;;;;;;;17.57;10.73;;;;;;;6.81;32.38;99408.09;5056245;28;20227;-79
2022/03/03 10:52:40;;;;;;;17.37;11.03;;;;;;;7.00;32.58;99406.50;5089471;28;20538;-73
2022/03/03 10:55:12;;;;;;;17.80;10.13;;;;;;;7.14;32.29;99400.16;5096814;28;20668;-75
2022/03/03 10:57:49;;;;;;;14.03;9.97;;;;;;;6.98;31.56;99397.91;5053580;28;20308;-75
2022/03/03 11:00:23;;;;;;;14.17;10.43;;;;;;;7.15;31.65;99393.81;5092750;28;20254;-75
2022/03/03 11:02:52;;;;;;;13.47;10.50;;;;;;;6.98;30.84;99393.41;5090688;28;20263;-75
2022/03/03 11:05:21;;;;;;;14.60;10.60;;;;;;;7.12;31.25;99388.91;5077181;28;20260;-73
2022/03/03 11:07:49;;;;;;;15.63;10.53;;;;;;;7.31;31.41;99390.78;5084157;28;20280;-74
2022/03/03 11:10:19;;;;;;;14.90;10.73;;;;;;;7.22;31.29;99384.00;5088275;28;20307;-73
2022/03/03 11:12:46;;;;;;;15.87;12.17;;;;;;;7.29;31.90;99387.47;5091386;28;20224;-73
2022/03/03 11:15:19;;;;;;;17.93;11.70;;;;;;;7.38;32.08;99388.91;5088913;28;20331;-76
2022/03/03 11:17:46;;;;;;;14.90;11.67;;;;;;;7.13;32.76;99379.06;5091967;28;20270;-74
2022/03/03 11:20:15;;;;;;;14.83;11.63;;;;;;;7.04;33.30;99384.59;5074875;28;20231;-76
2022/03/03 11:22:46;;;;;;;17.33;13.13;;;;;;;7.19;31.58;99373.72;5092408;28;20242;-73
2022/03/03 11:25:26;;;;;;;16.17;11.43;;;;;;;7.37;31.41;99367.81;5076900;28;20228;-73
2022/03/03 11:28:15;;;;;;;16.40;11.37;;;;;;;7.40;31.50;99370.88;5069946;28;20281;-77
2022/03/03 11:30:53;;;;;;;17.93;11.17;;;;;;;7.21;31.51;99373.53;5087826;28;20216;-75